This is the latest recevied weather packets stored in our database for station/object F4ETJ-1. If no packets are shown the sender has not sent any weather packets the latest 1 day(s).
| Time | Temp. | Humidity | Pressure | Rain* | Wind** | Luminosity | Snow |
|---|---|---|---|---|---|---|---|
| 1778050726 | 11.11° C | 95% | 1006.9 hPa | 2.03 mm | - | - | - |
| 1778050366 | 11.11° C | 94% | 1006.8 hPa | 1.78 mm | - | - | - |
| 1778050006 | 11.11° C | 95% | 1006.7 hPa | 1.52 mm | - | - | - |
| 1778049285 | 11.11° C | 95% | 1006.7 hPa | 1.02 mm | - | - | - |
| 1778048925 | 11.11° C | 95% | 1006.7 hPa | 1.02 mm | - | - | - |
| 1778048565 | 10.56° C | 95% | 1006.7 hPa | 1.02 mm | - | - | - |
| 1778048204 | 11.11° C | 95% | 1006.6 hPa | 0.76 mm | - | - | - |
| 1778047484 | 10.56° C | 94% | 1006.6 hPa | 0 mm | - | - | - |
| 1778046763 | 10.56° C | 94% | 1006.6 hPa | 0 mm | - | - | - |
| 1778046042 | 10° C | 94% | 1006.6 hPa | 0 mm | - | - | - |
| 1778045324 | 10° C | 95% | 1006.6 hPa | 0 mm | - | - | - |
| 1778044962 | 10° C | 94% | 1006.5 hPa | 0 mm | - | - | - |
| 1778044601 | 10° C | 94% | 1006.4 hPa | 0 mm | - | - | - |
| 1778044240 | 10° C | 94% | 1006.3 hPa | 0 mm | - | - | - |
| 1778023437 | 10.56° C | 90% | 1007.8 hPa | 0 mm | - | - | - |
| 1778023077 | 11.11° C | 89% | 1007.8 hPa | 0 mm | - | - | - |
| 1778021996 | 11.11° C | 89% | 1008 hPa | 0 mm | - | - | - |
| 1778018032 | 11.67° C | 86% | 1008.3 hPa | 0 mm | - | - | - |
| 1778014789 | 12.78° C | 83% | 1008.8 hPa | 0 mm | - | - | - |
| 1778014429 | 12.78° C | 83% | 1008.9 hPa | 0 mm | - | - | - |
| 1778012627 | 13.33° C | 81% | 1008.8 hPa | 0 mm | - | - | - |
| 1778011909 | 13.33° C | 81% | 1008.7 hPa | 0 mm | - | - | - |
| 1778011549 | 13.33° C | 81% | 1008.6 hPa | 0 mm | - | - | - |
* Rain latest hour (hover to see other rain measurements)
** Current wind speed in m/s (hover to see current wind gust speed)